createdAt,value
2018-12-21T05:51:15.459Z,8.60
2018-12-21T05:53:43.069Z,8.60
2018-12-21T05:56:10.629Z,8.50
2018-12-21T05:58:38.216Z,8.50
2018-12-21T06:01:05.764Z,8.50
2018-12-21T06:03:33.356Z,8.40
2018-12-21T06:06:00.956Z,8.40
2018-12-21T06:08:28.503Z,8.40
2018-12-21T06:10:56.121Z,8.40
2018-12-21T06:13:23.711Z,8.30
2018-12-21T06:15:51.284Z,8.40
2018-12-21T06:18:18.871Z,8.40
2018-12-21T06:20:46.473Z,8.30
2018-12-21T06:23:14.070Z,8.30
2018-12-21T06:25:41.631Z,8.30
2018-12-21T06:28:09.211Z,8.20
2018-12-21T06:30:36.810Z,8.20
2018-12-21T06:33:04.404Z,8.20
2018-12-21T06:35:32.016Z,8.30
2018-12-21T06:37:59.593Z,8.30
2018-12-21T06:40:27.188Z,8.30
2018-12-21T06:42:54.846Z,8.30
2018-12-21T06:45:22.512Z,8.30
2018-12-21T06:47:50.119Z,8.20
2018-12-21T06:50:18.307Z,8.20
2018-12-21T06:52:45.966Z,8.30
2018-12-21T06:55:13.557Z,8.30
2018-12-21T06:57:41.159Z,8.30
2018-12-21T07:00:11.285Z,8.30
2018-12-21T07:02:38.835Z,8.20
2018-12-21T07:05:07.231Z,8.30
2018-12-21T07:07:34.786Z,8.30
2018-12-21T07:10:02.387Z,8.30
2018-12-21T07:12:30.049Z,8.30
2018-12-21T07:14:57.685Z,8.30
2018-12-21T07:17:25.233Z,8.30
2018-12-21T07:19:52.841Z,8.30
2018-12-21T07:22:20.447Z,8.30
2018-12-21T07:24:48.006Z,8.40
2018-12-21T07:27:15.560Z,8.40
2018-12-21T07:29:43.154Z,8.40
2018-12-21T07:32:10.733Z,8.40
2018-12-21T07:34:38.319Z,8.50
2018-12-21T07:37:05.906Z,8.50
2018-12-21T07:39:33.501Z,8.60
2018-12-21T07:42:03.256Z,8.60
2018-12-21T07:44:30.984Z,8.60
2018-12-21T07:46:58.535Z,8.60
2018-12-21T07:49:26.149Z,8.60
2018-12-21T07:51:53.706Z,8.70
2018-12-21T07:54:21.325Z,8.80
2018-12-21T07:56:48.944Z,8.80
2018-12-21T07:59:16.540Z,8.80
2018-12-21T08:01:44.086Z,8.90
2018-12-21T08:04:11.676Z,8.90
2018-12-21T08:06:39.277Z,8.90
2018-12-21T08:09:07.268Z,8.90
2018-12-21T08:11:34.857Z,8.90
2018-12-21T08:14:02.444Z,9.00
2018-12-21T08:16:30.038Z,9.00
2018-12-21T08:18:57.596Z,9.20
2018-12-21T08:21:25.192Z,9.10
2018-12-21T08:23:52.744Z,9.10
2018-12-21T08:26:20.378Z,9.10
2018-12-21T08:28:48.001Z,9.20
2018-12-21T08:31:15.688Z,9.20
2018-12-21T08:33:43.285Z,9.20
2018-12-21T08:36:10.880Z,9.20
2018-12-21T08:38:38.437Z,9.20
2018-12-21T08:41:05.986Z,9.30
2018-12-21T08:43:33.574Z,9.30
2018-12-21T08:46:01.180Z,9.30
2018-12-21T08:48:28.765Z,9.30
2018-12-21T08:50:56.382Z,9.30
2018-12-21T08:53:23.972Z,9.30
2018-12-21T08:55:51.678Z,9.30
2018-12-21T08:58:19.318Z,9.30
2018-12-21T09:00:46.914Z,9.30
2018-12-21T09:03:14.537Z,9.20
2018-12-21T09:05:42.099Z,9.20
2018-12-21T09:08:09.693Z,9.20
2018-12-21T09:10:37.273Z,9.20
2018-12-21T09:13:04.867Z,9.20
2018-12-21T09:15:32.418Z,9.20
2018-12-21T09:18:00.005Z,9.20
2018-12-21T09:20:27.552Z,9.20
2018-12-21T09:22:55.149Z,9.20
2018-12-21T09:25:22.739Z,9.30
2018-12-21T09:27:50.343Z,9.30
2018-12-21T09:30:18.023Z,9.40
2018-12-21T09:32:45.614Z,9.40
2018-12-21T09:35:13.209Z,9.50
2018-12-21T09:37:40.768Z,9.50
2018-12-21T09:40:09.052Z,9.40
2018-12-21T09:42:36.647Z,9.50
2018-12-21T09:45:04.507Z,9.50
2018-12-21T09:47:32.130Z,9.50
2018-12-21T09:49:59.687Z,9.60
2018-12-21T09:52:27.282Z,9.60
2018-12-21T09:54:54.827Z,9.60
2018-12-21T09:57:22.408Z,9.70
2018-12-21T09:59:50.035Z,9.60
2018-12-21T10:02:17.620Z,9.60
2018-12-21T10:04:45.182Z,9.60
2018-12-21T10:07:12.781Z,9.60
2018-12-21T10:09:40.413Z,9.60
2018-12-21T10:12:07.969Z,9.60
2018-12-21T10:14:35.561Z,9.60
2018-12-21T10:17:03.124Z,9.60
2018-12-21T10:19:30.846Z,9.60
2018-12-21T10:21:58.431Z,9.70
2018-12-21T10:24:26.064Z,9.70
2018-12-21T10:26:53.624Z,9.80
2018-12-21T10:29:21.215Z,9.90
2018-12-21T10:31:48.798Z,9.90
2018-12-21T10:34:16.421Z,10.00
2018-12-21T10:36:43.981Z,10.00
2018-12-21T10:39:11.568Z,10.10
2018-12-21T10:41:39.135Z,10.10
2018-12-21T10:44:06.728Z,10.10
2018-12-21T10:46:34.283Z,10.20
2018-12-21T10:49:01.913Z,10.20
2018-12-21T10:51:29.608Z,10.20
2018-12-21T10:53:57.205Z,10.30
2018-12-21T10:56:24.801Z,10.30
2018-12-21T10:58:52.400Z,10.40
2018-12-21T11:01:19.957Z,10.40
2018-12-21T11:03:47.544Z,10.40
2018-12-21T11:06:15.133Z,10.40
2018-12-21T11:08:42.740Z,10.40
2018-12-21T11:11:10.325Z,10.40
2018-12-21T11:13:37.950Z,10.50
2018-12-21T11:16:05.516Z,10.40
2018-12-21T11:18:33.118Z,10.50
2018-12-21T11:21:00.711Z,10.50
2018-12-21T11:23:28.296Z,10.50
2018-12-21T11:25:55.864Z,10.50
2018-12-21T11:28:25.497Z,10.60
2018-12-21T11:30:53.081Z,10.70
2018-12-21T11:33:20.830Z,10.70
2018-12-21T11:35:49.072Z,10.80
2018-12-21T11:38:16.695Z,10.90
2018-12-21T11:40:44.306Z,10.90
2018-12-21T11:43:11.894Z,11.00
2018-12-21T11:45:39.479Z,11.00
2018-12-21T11:48:07.081Z,11.10
2018-12-21T11:50:34.685Z,11.10
2018-12-21T11:53:02.280Z,11.10
2018-12-21T11:55:29.840Z,11.10
2018-12-21T11:57:57.474Z,11.20
2018-12-21T12:00:25.063Z,11.20
2018-12-21T12:02:52.690Z,11.30
2018-12-21T12:05:20.255Z,11.30
2018-12-21T12:07:47.849Z,11.30
2018-12-21T12:10:15.440Z,11.30
2018-12-21T12:12:43.042Z,11.40
2018-12-21T12:15:10.599Z,11.50
2018-12-21T12:17:38.152Z,11.50
2018-12-21T12:20:06.281Z,11.70
2018-12-21T12:22:33.841Z,11.70
2018-12-21T12:25:01.406Z,11.70
2018-12-21T12:27:29.037Z,11.80
2018-12-21T12:29:56.593Z,11.80
2018-12-21T12:32:24.149Z,11.80
2018-12-21T12:34:51.744Z,11.90
2018-12-21T12:37:19.293Z,11.90
2018-12-21T12:39:46.922Z,12.00
2018-12-21T12:42:14.567Z,12.10
2018-12-21T12:44:42.132Z,12.10
2018-12-21T12:47:09.696Z,12.20
2018-12-21T12:49:37.296Z,12.30
2018-12-21T12:52:04.846Z,12.30
2018-12-21T12:54:32.479Z,12.30
2018-12-21T12:57:00.042Z,12.40
2018-12-21T12:59:27.600Z,12.40
2018-12-21T13:01:55.193Z,12.40
2018-12-21T13:04:22.778Z,12.50
2018-12-21T13:06:50.385Z,12.50
2018-12-21T13:09:17.944Z,12.50
2018-12-21T13:11:45.539Z,12.50
2018-12-21T13:14:13.097Z,12.50
2018-12-21T13:16:40.736Z,12.50
2018-12-21T13:19:08.307Z,12.50
2018-12-21T13:21:35.871Z,12.50
2018-12-21T13:26:37.444Z,12.50
2018-12-21T13:29:05.044Z,12.50
2018-12-21T13:31:32.602Z,12.60
2018-12-21T13:34:00.222Z,12.60
2018-12-21T13:36:27.811Z,12.60
2018-12-21T13:38:55.423Z,12.60
2018-12-21T13:41:23.009Z,12.60
2018-12-21T13:43:50.761Z,12.60
2018-12-21T13:46:18.346Z,12.50
2018-12-21T13:48:45.904Z,12.60
2018-12-21T13:51:13.500Z,12.50
2018-12-21T13:53:41.060Z,12.60
2018-12-21T13:56:08.697Z,12.60
2018-12-21T13:58:36.257Z,12.60
2018-12-21T14:01:03.854Z,12.60
2018-12-21T14:03:31.444Z,12.60
2018-12-21T14:05:59.059Z,12.60
2018-12-21T14:08:26.622Z,12.60
2018-12-21T14:10:54.217Z,12.60
2018-12-21T14:13:21.814Z,12.60
2018-12-21T14:15:50.058Z,12.60
2018-12-21T14:18:17.671Z,12.60
2018-12-21T14:20:45.249Z,12.60
2018-12-21T14:23:12.815Z,12.60
2018-12-21T14:25:40.419Z,12.60
2018-12-21T14:28:07.979Z,12.60
2018-12-21T14:30:35.573Z,12.50
2018-12-21T14:33:03.132Z,12.50
2018-12-21T14:35:30.727Z,12.50
2018-12-21T14:37:58.278Z,12.60
2018-12-21T14:40:25.877Z,12.50
2018-12-21T14:42:53.517Z,12.50
2018-12-21T14:45:21.072Z,12.60
2018-12-21T14:47:48.689Z,12.60
2018-12-21T14:50:16.277Z,12.50
2018-12-21T14:52:43.873Z,12.50
2018-12-21T14:55:11.485Z,12.50
2018-12-21T14:57:39.044Z,12.40
2018-12-21T15:00:11.221Z,12.40
2018-12-21T15:02:38.859Z,12.40
2018-12-21T15:05:07.663Z,12.20
2018-12-21T15:07:35.286Z,12.20
2018-12-21T15:10:03.440Z,12.20
2018-12-21T15:12:31.037Z,12.20
2018-12-21T15:14:58.629Z,12.10
2018-12-21T15:17:26.225Z,12.20
2018-12-21T15:19:53.794Z,12.20
2018-12-21T15:22:21.425Z,12.20
2018-12-21T15:24:49.024Z,12.10
2018-12-21T15:27:16.585Z,11.90
2018-12-21T15:29:44.202Z,11.80
2018-12-21T15:32:11.760Z,11.90
2018-12-21T15:34:39.380Z,11.90
2018-12-21T15:37:06.948Z,11.90
2018-12-21T15:39:34.560Z,11.80
2018-12-21T15:42:02.122Z,11.70
2018-12-21T15:44:29.711Z,11.70
2018-12-21T15:46:57.310Z,11.70
2018-12-21T15:49:24.864Z,11.60
2018-12-21T15:51:52.462Z,11.60
2018-12-21T15:54:20.347Z,11.60
2018-12-21T15:56:47.956Z,11.70
2018-12-21T15:59:15.569Z,11.60
2018-12-21T16:01:43.177Z,11.50
2018-12-21T16:04:10.841Z,11.60
2018-12-21T16:06:38.443Z,11.60
2018-12-21T16:09:06.721Z,11.60
2018-12-21T16:11:34.333Z,11.70
2018-12-21T16:14:02.025Z,11.60
2018-12-21T16:16:29.616Z,11.60
2018-12-21T16:18:57.238Z,11.60
2018-12-21T16:21:24.797Z,11.60
2018-12-21T16:23:52.430Z,11.60
2018-12-21T16:26:19.997Z,11.60
2018-12-21T16:28:47.590Z,11.60
2018-12-21T16:31:15.477Z,11.70
2018-12-21T16:33:43.519Z,11.70
2018-12-21T16:36:11.345Z,11.60
2018-12-21T16:38:39.176Z,11.60
2018-12-21T16:41:06.985Z,11.60
2018-12-21T16:43:34.838Z,11.60
2018-12-21T16:46:02.543Z,11.60
2018-12-21T16:48:30.331Z,11.50
2018-12-21T16:50:58.122Z,11.60
2018-12-21T16:53:25.801Z,11.50
2018-12-21T16:55:53.472Z,11.40
2018-12-21T16:58:21.036Z,11.20
2018-12-21T17:00:48.687Z,11.10
2018-12-21T17:03:16.358Z,11.10
2018-12-21T17:05:47.502Z,11.00
2018-12-21T17:08:15.259Z,11.00
2018-12-21T17:10:43.059Z,11.10
2018-12-21T17:13:10.655Z,11.00
2018-12-21T17:15:38.225Z,10.90
2018-12-21T17:18:05.825Z,10.80
2018-12-21T17:20:33.429Z,10.80
2018-12-21T17:23:00.990Z,10.80
2018-12-21T17:25:28.637Z,10.80
2018-12-21T17:27:56.241Z,10.80
2018-12-21T17:30:23.832Z,10.70
2018-12-21T17:32:51.401Z,10.70
2018-12-21T17:35:19.001Z,10.70
2018-12-21T17:37:46.597Z,10.80
2018-12-21T17:40:14.149Z,10.80
2018-12-21T17:42:41.742Z,10.80
2018-12-21T17:45:09.325Z,10.90
2018-12-21T17:47:36.937Z,10.90
2018-12-21T17:50:06.522Z,10.90
2018-12-21T17:52:34.080Z,10.90
2018-12-21T17:55:01.709Z,10.90
2018-12-21T17:57:29.338Z,10.90
2018-12-21T17:59:56.960Z,10.90
2018-12-21T18:02:24.528Z,10.90
2018-12-21T18:04:52.143Z,10.90
2018-12-21T18:07:19.703Z,10.90
2018-12-21T18:09:47.269Z,10.90
2018-12-21T18:12:14.925Z,10.70
2018-12-21T18:14:42.488Z,10.60
2018-12-21T18:17:10.081Z,10.70
2018-12-21T18:19:37.647Z,10.70
2018-12-21T18:22:05.344Z,10.70
2018-12-21T18:24:32.943Z,10.70
2018-12-21T18:27:00.550Z,10.80
2018-12-21T18:29:28.200Z,10.70
2018-12-21T18:31:55.769Z,10.70
2018-12-21T18:34:27.184Z,10.70
2018-12-21T18:36:54.743Z,10.80
2018-12-21T18:39:22.413Z,10.80
2018-12-21T18:41:50.000Z,10.90
2018-12-21T18:44:17.632Z,11.00
2018-12-21T18:46:45.193Z,11.00
2018-12-21T18:49:12.831Z,11.10
2018-12-21T18:51:40.431Z,11.00
2018-12-21T18:54:08.033Z,11.00
2018-12-21T18:56:46.959Z,11.00
2018-12-21T18:59:08.656Z,10.90
2018-12-21T19:01:36.216Z,10.90
2018-12-21T19:04:03.818Z,10.90
2018-12-21T19:06:31.498Z,10.90
2018-12-21T19:08:59.230Z,10.90
2018-12-21T19:11:26.818Z,10.90
2018-12-21T19:13:54.405Z,10.90
2018-12-21T19:16:22.039Z,10.80
2018-12-21T19:18:49.637Z,10.70
2018-12-21T19:21:17.264Z,10.70
2018-12-21T19:23:44.820Z,10.60
2018-12-21T19:26:12.412Z,10.60
2018-12-21T19:28:40.014Z,10.60
2018-12-21T19:31:07.569Z,10.60
2018-12-21T19:33:35.432Z,10.50
2018-12-21T19:36:03.008Z,10.50
2018-12-21T19:38:30.638Z,10.50
2018-12-21T19:40:58.193Z,10.50
2018-12-21T19:43:28.307Z,10.40
2018-12-21T19:45:55.419Z,10.30
2018-12-21T19:48:23.048Z,10.30
2018-12-21T19:50:50.627Z,10.30
2018-12-21T19:53:18.643Z,10.30
2018-12-21T19:55:48.053Z,10.30
2018-12-21T19:58:15.656Z,10.30
2018-12-21T20:00:43.271Z,10.30
2018-12-21T20:03:10.980Z,10.20
2018-12-21T20:05:38.677Z,10.20
2018-12-21T20:08:06.280Z,10.20
2018-12-21T20:10:33.842Z,10.20
2018-12-21T20:13:01.443Z,10.10
2018-12-21T20:15:29.099Z,10.20
2018-12-21T20:17:56.666Z,10.20
2018-12-21T20:20:24.333Z,10.20
2018-12-21T20:22:52.005Z,10.30
2018-12-21T20:25:19.721Z,10.30
2018-12-21T20:27:47.687Z,10.30
2018-12-21T20:30:16.622Z,10.40
2018-12-21T20:32:44.230Z,10.40
2018-12-21T20:35:11.999Z,10.50
2018-12-21T20:37:39.608Z,10.50
2018-12-21T20:40:10.870Z,10.50
2018-12-21T20:42:38.477Z,10.50
2018-12-21T20:45:08.828Z,10.60
2018-12-21T20:47:36.439Z,10.60
2018-12-21T20:50:07.985Z,10.60
2018-12-21T20:52:35.791Z,10.70
2018-12-21T20:55:06.113Z,10.70
2018-12-21T20:57:33.727Z,10.70
2018-12-21T21:00:01.310Z,10.60
2018-12-21T21:02:29.015Z,10.70
2018-12-21T21:04:56.678Z,10.60
2018-12-21T21:07:24.293Z,10.60
2018-12-21T21:09:51.999Z,10.60
2018-12-21T21:12:19.709Z,10.70
2018-12-21T21:14:47.453Z,10.70
2018-12-21T21:17:17.225Z,10.70
2018-12-21T21:19:45.009Z,10.60
2018-12-21T21:22:12.580Z,10.60
2018-12-21T21:24:40.214Z,10.60
2018-12-21T21:27:07.781Z,10.60
2018-12-21T21:29:35.371Z,10.70
2018-12-21T21:32:03.045Z,10.70
2018-12-21T21:34:30.819Z,10.60
2018-12-21T21:36:58.433Z,10.60
2018-12-21T21:39:26.054Z,10.60
2018-12-21T21:41:53.759Z,10.60
2018-12-21T21:44:21.542Z,10.50
2018-12-21T21:46:49.105Z,10.50
2018-12-21T21:49:16.732Z,10.50
2018-12-21T21:51:44.555Z,10.50
2018-12-21T21:54:12.242Z,10.40
2018-12-21T21:56:39.849Z,10.30
2018-12-21T21:59:07.514Z,10.20
2018-12-21T22:01:35.222Z,10.10
2018-12-21T22:04:02.868Z,10.10
2018-12-21T22:06:30.504Z,10.00
2018-12-21T22:08:58.189Z,10.00
2018-12-21T22:11:25.756Z,10.00
2018-12-21T22:13:53.371Z,10.00
2018-12-21T22:16:21.203Z,10.00
2018-12-21T22:18:48.849Z,9.90
2018-12-21T22:21:16.413Z,10.00
2018-12-21T22:23:44.138Z,10.00
2018-12-21T22:26:11.687Z,10.00
2018-12-21T22:28:39.525Z,10.00
2018-12-21T22:31:07.078Z,10.00
2018-12-21T22:33:34.704Z,10.00
2018-12-21T22:36:02.274Z,10.00
2018-12-21T22:38:29.874Z,10.00
2018-12-21T22:40:57.454Z,9.90
2018-12-21T22:43:25.051Z,9.90
2018-12-21T22:45:52.602Z,9.90
2018-12-21T22:48:20.184Z,9.90
2018-12-21T22:50:47.791Z,9.90
2018-12-21T22:53:15.378Z,9.90
2018-12-21T22:55:42.934Z,9.90
2018-12-21T22:58:10.545Z,9.90
2018-12-21T23:00:38.552Z,9.90
2018-12-21T23:03:06.161Z,9.90
2018-12-21T23:05:33.719Z,9.90
2018-12-21T23:08:01.267Z,9.90
2018-12-21T23:10:28.855Z,10.00
2018-12-21T23:12:56.455Z,10.00
2018-12-21T23:15:24.018Z,10.00
2018-12-21T23:17:51.784Z,10.00
2018-12-21T23:20:19.412Z,10.00
2018-12-21T23:22:46.965Z,10.00
2018-12-21T23:25:14.717Z,10.00
2018-12-21T23:27:42.526Z,10.00
2018-12-21T23:30:10.120Z,9.90
2018-12-21T23:32:38.005Z,9.80
2018-12-21T23:35:05.781Z,9.70
2018-12-21T23:37:33.725Z,9.60
2018-12-21T23:40:01.323Z,9.60
2018-12-21T23:42:28.949Z,9.50
2018-12-21T23:44:56.517Z,9.40
2018-12-21T23:47:24.129Z,9.40
2018-12-21T23:49:51.742Z,9.40
2018-12-21T23:52:19.430Z,9.40
2018-12-21T23:54:47.025Z,9.40
2018-12-21T23:57:14.800Z,9.40
2018-12-21T23:59:42.405Z,9.40
